Time;durP1;ratioP1;P1;durP2;ratioP2;P2;SDS_P1;SDS_P2;PMS_P1;PMS_P2;Temp;Humidity;BMP_temperature;BMP_pressure;BME280_temperature;BME280_humidity;BME280_pressure;Samples;Min_cycle;Max_cycle;Signal;HPM_P1;HPM_P2
2022/10/29 00:00:52;;;;;;;14.10;7.40;;;;;;;;;;5073712;28;20054;-69
2022/10/29 00:03:18;;;;;;;11.52;7.13;;;;;;;;;;5062941;28;20086;-69
2022/10/29 00:05:43;;;;;;;15.02;6.85;;;;;;;;;;5074263;28;20016;-69
2022/10/29 00:08:08;;;;;;;17.25;7.15;;;;;;;;;;5073451;28;20494;-68
2022/10/29 00:10:33;;;;;;;15.27;7.83;;;;;;;;;;5063349;28;20077;-69
2022/10/29 00:13:00;;;;;;;12.63;7.57;;;;;;;;;;5070271;28;20273;-68
2022/10/29 00:15:25;;;;;;;13.13;7.97;;;;;;;;;;5071853;28;20267;-68
2022/10/29 00:17:50;;;;;;;14.00;7.53;;;;;;;;;;5074822;28;20107;-68
2022/10/29 00:20:17;;;;;;;16.03;7.50;;;;;;;;;;5048257;28;20336;-68
2022/10/29 00:22:42;;;;;;;19.95;7.38;;;;;;;;;;5067534;28;20272;-68
2022/10/29 00:25:08;;;;;;;15.33;8.73;;;;;;;;;;5069773;28;20374;-68
2022/10/29 00:27:33;;;;;;;12.50;7.43;;;;;;;;;;5068152;28;20815;-69
2022/10/29 00:29:58;;;;;;;17.53;7.50;;;;;;;;;;5062783;28;20471;-68
2022/10/29 00:32:23;;;;;;;13.67;8.47;;;;;;;;;;5072301;28;20324;-69
2022/10/29 00:34:48;;;;;;;17.20;8.57;;;;;;;;;;5064371;28;20359;-68
2022/10/29 00:37:14;;;;;;;21.80;8.47;;;;;;;;;;5071127;28;20298;-68
2022/10/29 00:39:39;;;;;;;15.90;9.20;;;;;;;;;;5072942;28;20270;-68
2022/10/29 00:42:04;;;;;;;12.90;7.87;;;;;;;;;;5070615;28;20277;-69
2022/10/29 00:44:34;;;;;;;11.88;6.75;;;;;;;;;;5072911;28;20271;-68
2022/10/29 00:47:11;;;;;;;21.02;8.63;;;;;;;;;;5056386;28;20028;-68
2022/10/29 00:49:37;;;;;;;16.30;7.50;;;;;;;;;;5081165;28;20100;-68
2022/10/29 00:52:03;;;;;;;19.05;8.05;;;;;;;;;;5068849;28;20506;-68
2022/10/29 00:54:31;;;;;;;17.23;9.65;;;;;;;;;;5072357;28;20028;-69
2022/10/29 00:56:58;;;;;;;13.65;9.00;;;;;;;;;;5071773;28;20036;-69
2022/10/29 00:59:24;;;;;;;13.50;8.63;;;;;;;;;;5071983;28;20086;-69
2022/10/29 01:01:49;;;;;;;16.83;8.45;;;;;;;;;;5072960;28;20024;-69
2022/10/29 01:04:15;;;;;;;14.90;8.70;;;;;;;;;;5070598;28;20024;-69
2022/10/29 01:06:45;;;;;;;24.90;8.40;;;;;;;;;;5063281;28;20016;-69
2022/10/29 01:09:11;;;;;;;13.98;8.15;;;;;;;;;;5068020;28;20468;-69
2022/10/29 01:11:36;;;;;;;13.43;8.05;;;;;;;;;;5073080;28;20119;-68
2022/10/29 01:14:16;;;;;;;15.83;7.87;;;;;;;;;;5058682;28;20032;-68
2022/10/29 01:16:56;;;;;;;12.65;7.47;;;;;;;;;;5072405;28;20425;-68
2022/10/29 01:19:27;;;;;;;15.93;9.82;;;;;;;;;;5072717;28;20138;-68
2022/10/29 01:22:10;;;;;;;17.27;7.80;;;;;;;;;;5074473;28;20095;-69
2022/10/29 01:24:38;;;;;;;14.75;9.00;;;;;;;;;;5067303;28;20158;-69
2022/10/29 01:27:21;;;;;;;13.98;7.47;;;;;;;;;;5062614;28;20039;-69
2022/10/29 01:30:05;;;;;;;16.15;8.65;;;;;;;;;;5076777;28;20466;-69
2022/10/29 01:32:30;;;;;;;12.05;8.02;;;;;;;;;;5072423;28;20066;-69
2022/10/29 01:35:16;;;;;;;15.47;8.00;;;;;;;;;;5060455;28;20016;-69
2022/10/29 01:37:46;;;;;;;16.88;8.98;;;;;;;;;;5062108;28;20501;-69
2022/10/29 01:40:11;;;;;;;14.80;8.63;;;;;;;;;;5070648;28;20471;-69
2022/10/29 01:42:38;;;;;;;17.73;9.20;;;;;;;;;;5063921;28;20063;-69
2022/10/29 01:45:13;;;;;;;12.93;8.63;;;;;;;;;;5071421;28;20020;-69
2022/10/29 01:47:38;;;;;;;;;;;;;;;;;;5069805;28;20033;-69
2022/10/29 01:50:06;;;;;;;23.00;8.82;;;;;;;;;;5069669;28;19916;-69
2022/10/29 01:52:32;;;;;;;15.15;8.55;;;;;;;;;;5084343;28;20036;-69
2022/10/29 01:54:57;;;;;;;18.38;9.27;;;;;;;;;;5069866;28;20099;-69
2022/10/29 01:57:33;;;;;;;15.93;10.02;;;;;;;;;;5071681;28;20128;-69
2022/10/29 02:00:07;;;;;;;17.67;9.73;;;;;;;;;;5080671;28;20381;-69
2022/10/29 02:02:51;;;;;;;12.63;8.85;;;;;;;;;;5074375;28;20035;-69
2022/10/29 02:05:19;;;;;;;23.95;9.90;;;;;;;;;;5074166;28;20024;-69
2022/10/29 02:07:49;;;;;;;20.15;9.05;;;;;;;;;;5080219;28;20019;-69
2022/10/29 02:10:17;;;;;;;14.48;8.82;;;;;;;;;;5079965;28;20530;-69
2022/10/29 02:12:47;;;;;;;14.63;8.18;;;;;;;;;;5070768;28;20116;-69
2022/10/29 02:15:19;;;;;;;15.85;8.57;;;;;;;;;;5088139;28;20531;-69
2022/10/29 02:17:44;;;;;;;17.88;9.32;;;;;;;;;;5050088;28;20032;-69
2022/10/29 02:20:11;;;;;;;19.35;9.10;;;;;;;;;;5079878;28;20024;-69
2022/10/29 02:22:36;;;;;;;17.70;9.57;;;;;;;;;;5067667;28;20029;-69
2022/10/29 02:25:02;;;;;;;18.13;9.57;;;;;;;;;;5080049;28;20524;-69
2022/10/29 02:27:27;;;;;;;18.40;10.77;;;;;;;;;;5067797;28;20028;-69
2022/10/29 02:29:52;;;;;;;20.15;10.05;;;;;;;;;;5070537;28;20035;-69
2022/10/29 02:32:18;;;;;;;16.27;9.30;;;;;;;;;;5062370;28;20447;-69
2022/10/29 02:34:43;;;;;;;14.15;9.48;;;;;;;;;;5070727;28;20696;-69
2022/10/29 02:37:08;;;;;;;16.97;9.57;;;;;;;;;;5071072;28;20086;-69
2022/10/29 02:39:33;;;;;;;18.45;7.75;;;;;;;;;;5064484;28;20275;-70
2022/10/29 02:41:59;;;;;;;19.38;10.23;;;;;;;;;;5068428;28;20027;-69
2022/10/29 02:44:24;;;;;;;16.93;9.40;;;;;;;;;;5071384;28;20013;-69
2022/10/29 02:46:49;;;;;;;13.37;8.93;;;;;;;;;;5059367;28;20272;-69
2022/10/29 02:49:14;;;;;;;20.10;9.20;;;;;;;;;;5065140;28;20274;-69
2022/10/29 02:51:39;;;;;;;20.37;9.77;;;;;;;;;;5071051;28;20263;-69
2022/10/29 02:54:05;;;;;;;15.63;8.77;;;;;;;;;;5069341;28;20349;-69
2022/10/29 02:56:30;;;;;;;22.20;9.07;;;;;;;;;;5070161;28;20313;-69
2022/10/29 02:58:55;;;;;;;16.27;10.00;;;;;;;;;;5073609;28;20027;-69
2022/10/29 03:01:20;;;;;;;18.70;7.75;;;;;;;;;;5075009;28;20255;-69
2022/10/29 03:03:46;;;;;;;14.63;8.68;;;;;;;;;;5074978;28;20056;-69
2022/10/29 03:06:12;;;;;;;18.73;7.90;;;;;;;;;;5073818;28;20074;-69
2022/10/29 03:08:37;;;;;;;13.27;8.43;;;;;;;;;;5057629;28;20278;-69
2022/10/29 03:11:02;;;;;;;14.47;8.90;;;;;;;;;;5068230;28;20017;-69
2022/10/29 03:13:27;;;;;;;19.43;9.40;;;;;;;;;;5066619;28;20286;-69
2022/10/29 03:15:53;;;;;;;14.23;8.47;;;;;;;;;;5074543;28;20286;-69
2022/10/29 03:18:18;;;;;;;13.77;9.43;;;;;;;;;;5074870;28;20270;-69
2022/10/29 03:20:44;;;;;;;17.40;9.60;;;;;;;;;;5074925;28;20047;-69
2022/10/29 03:23:09;;;;;;;13.48;8.18;;;;;;;;;;5064672;28;20028;-69
2022/10/29 03:25:34;;;;;;;13.48;7.88;;;;;;;;;;5071188;28;20502;-69
2022/10/29 03:28:00;;;;;;;16.97;8.57;;;;;;;;;;5064912;28;20017;-69
2022/10/29 03:30:25;;;;;;;12.00;7.33;;;;;;;;;;5074233;28;20289;-69
2022/10/29 03:32:50;;;;;;;14.10;8.33;;;;;;;;;;5059394;28;20270;-69
2022/10/29 03:35:15;;;;;;;15.40;8.50;;;;;;;;;;5073672;28;20258;-69
2022/10/29 03:37:41;;;;;;;14.57;8.07;;;;;;;;;;5063312;28;20434;-70
2022/10/29 03:40:06;;;;;;;20.55;8.00;;;;;;;;;;5065626;28;20017;-69
2022/10/29 03:42:32;;;;;;;14.52;8.18;;;;;;;;;;5069738;28;20032;-69
2022/10/29 03:44:57;;;;;;;21.40;9.10;;;;;;;;;;5073546;28;20017;-69
2022/10/29 03:47:23;;;;;;;11.50;8.48;;;;;;;;;;5060805;28;20028;-70
2022/10/29 03:49:48;;;;;;;21.63;8.43;;;;;;;;;;5072287;28;20431;-70
2022/10/29 03:52:13;;;;;;;13.07;9.00;;;;;;;;;;5070273;28;20077;-69
2022/10/29 03:54:38;;;;;;;12.20;8.23;;;;;;;;;;5073462;28;20297;-69
2022/10/29 03:57:04;;;;;;;23.93;9.20;;;;;;;;;;5061586;28;20290;-69
2022/10/29 03:59:29;;;;;;;14.82;9.40;;;;;;;;;;5072195;28;20353;-69
2022/10/29 04:01:54;;;;;;;25.03;10.03;;;;;;;;;;5073816;28;20024;-69
2022/10/29 04:04:19;;;;;;;14.57;8.20;;;;;;;;;;5075985;28;20274;-69
2022/10/29 04:06:44;;;;;;;13.27;8.73;;;;;;;;;;5069441;28;20267;-70
2022/10/29 04:09:10;;;;;;;14.83;8.80;;;;;;;;;;5074700;28;20287;-69
2022/10/29 04:11:35;;;;;;;19.57;9.43;;;;;;;;;;5074141;28;20259;-69
2022/10/29 04:14:00;;;;;;;17.30;9.27;;;;;;;;;;5067168;28;20264;-68
2022/10/29 04:16:25;;;;;;;18.07;8.73;;;;;;;;;;5062311;28;20054;-69
2022/10/29 04:18:51;;;;;;;13.67;8.77;;;;;;;;;;5059713;28;20294;-69
2022/10/29 04:21:16;;;;;;;15.07;8.85;;;;;;;;;;5067279;28;20294;-69
2022/10/29 04:23:41;;;;;;;16.80;9.55;;;;;;;;;;5073144;28;20016;-68
2022/10/29 04:26:06;;;;;;;14.35;9.05;;;;;;;;;;5072142;28;20017;-68
2022/10/29 04:28:32;;;;;;;15.50;8.13;;;;;;;;;;5073389;28;20226;-68
2022/10/29 04:31:02;;;;;;;16.77;9.50;;;;;;;;;;5086742;28;20764;-69
2022/10/29 04:33:27;;;;;;;23.30;8.70;;;;;;;;;;5080272;28;20733;-69
2022/10/29 04:35:53;;;;;;;20.37;10.30;;;;;;;;;;5075487;28;20040;-69
2022/10/29 04:38:18;;;;;;;20.15;8.85;;;;;;;;;;5073344;28;20279;-69
2022/10/29 04:40:43;;;;;;;22.95;8.77;;;;;;;;;;5073041;28;20169;-69
2022/10/29 04:43:08;;;;;;;13.95;9.07;;;;;;;;;;5071433;28;20017;-69
2022/10/29 04:45:34;;;;;;;19.33;9.43;;;;;;;;;;5060508;28;20017;-69
2022/10/29 04:48:00;;;;;;;16.03;8.77;;;;;;;;;;5057213;28;20281;-69
2022/10/29 04:50:25;;;;;;;16.05;10.00;;;;;;;;;;5067708;28;20275;-69
2022/10/29 04:52:50;;;;;;;17.08;9.55;;;;;;;;;;5072308;28;20027;-69
2022/10/29 04:55:16;;;;;;;20.47;10.07;;;;;;;;;;5072946;28;20016;-69
2022/10/29 04:57:41;;;;;;;18.37;9.17;;;;;;;;;;5073101;28;20807;-69
2022/10/29 05:00:06;;;;;;;17.17;10.00;;;;;;;;;;5070629;28;20579;-69
2022/10/29 05:02:32;;;;;;;16.80;10.25;;;;;;;;;;5066073;28;20614;-69
2022/10/29 05:04:57;;;;;;;24.00;10.70;;;;;;;;;;5070021;28;20016;-69
2022/10/29 05:07:22;;;;;;;24.57;11.33;;;;;;;;;;5073858;28;20263;-69
2022/10/29 05:09:47;;;;;;;15.27;9.30;;;;;;;;;;5053504;28;20275;-69
2022/10/29 05:12:12;;;;;;;28.67;10.80;;;;;;;;;;5055578;28;20096;-69
2022/10/29 05:14:38;;;;;;;18.02;11.30;;;;;;;;;;5053500;28;20633;-69
2022/10/29 05:17:03;;;;;;;23.83;11.37;;;;;;;;;;5055370;28;20025;-69
2022/10/29 05:19:28;;;;;;;25.77;10.47;;;;;;;;;;5053895;28;20283;-69
2022/10/29 05:21:53;;;;;;;22.13;11.57;;;;;;;;;;5053189;28;20260;-68
2022/10/29 05:24:19;;;;;;;19.95;10.18;;;;;;;;;;5052066;28;20264;-69
2022/10/29 05:26:44;;;;;;;17.50;10.30;;;;;;;;;;5049892;28;20017;-69
2022/10/29 05:29:09;;;;;;;17.20;10.23;;;;;;;;;;5066140;28;20297;-68
2022/10/29 05:31:34;;;;;;;14.90;10.73;;;;;;;;;;5070949;28;20286;-69
2022/10/29 05:33:59;;;;;;;16.03;9.70;;;;;;;;;;5059723;28;20275;-69
2022/10/29 05:36:25;;;;;;;22.83;9.50;;;;;;;;;;5069051;28;20313;-69
2022/10/29 05:38:50;;;;;;;17.63;10.23;;;;;;;;;;5061684;28;20276;-69
2022/10/29 05:41:15;;;;;;;15.23;8.67;;;;;;;;;;5070207;28;20296;-69
2022/10/29 05:43:41;;;;;;;17.73;8.43;;;;;;;;;;5055536;28;20813;-69
2022/10/29 05:46:06;;;;;;;15.90;9.07;;;;;;;;;;5052086;28;20013;-69
2022/10/29 05:48:31;;;;;;;14.83;9.10;;;;;;;;;;5047982;28;20142;-69
2022/10/29 05:50:57;;;;;;;16.35;8.70;;;;;;;;;;5075803;28;20310;-69
2022/10/29 05:53:22;;;;;;;15.70;9.18;;;;;;;;;;5071214;28;20021;-69
2022/10/29 05:55:47;;;;;;;12.70;8.13;;;;;;;;;;5066538;28;20508;-69
2022/10/29 05:58:12;;;;;;;16.05;7.97;;;;;;;;;;5069627;28;20043;-69
2022/10/29 06:00:39;;;;;;;15.50;8.23;;;;;;;;;;5067791;28;20107;-69
2022/10/29 06:03:09;;;;;;;12.32;7.30;;;;;;;;;;5071015;28;20501;-69
2022/10/29 06:05:35;;;;;;;11.15;7.38;;;;;;;;;;5070337;28;20024;-69
2022/10/29 06:08:00;;;;;;;15.30;8.17;;;;;;;;;;5070114;28;20103;-69
2022/10/29 06:10:27;;;;;;;15.07;7.15;;;;;;;;;;5055818;28;20348;-69
2022/10/29 06:12:52;;;;;;;14.25;7.90;;;;;;;;;;5057543;28;20078;-69
2022/10/29 06:15:18;;;;;;;15.10;7.20;;;;;;;;;;5064481;28;20032;-69
2022/10/29 06:17:43;;;;;;;13.18;8.05;;;;;;;;;;5056839;28;20035;-69
2022/10/29 06:20:09;;;;;;;27.20;8.32;;;;;;;;;;5074547;28;20024;-69
2022/10/29 06:22:35;;;;;;;13.02;7.95;;;;;;;;;;5063445;28;20155;-69
2022/10/29 06:25:00;;;;;;;12.93;7.70;;;;;;;;;;5058921;28;20128;-69
2022/10/29 06:27:25;;;;;;;12.23;7.75;;;;;;;;;;5064125;28;20302;-69
2022/10/29 06:29:50;;;;;;;13.67;7.73;;;;;;;;;;5069488;28;20071;-69
2022/10/29 06:32:16;;;;;;;15.43;7.67;;;;;;;;;;5073432;28;20348;-69
2022/10/29 06:34:41;;;;;;;13.48;7.40;;;;;;;;;;5064835;28;20325;-69
2022/10/29 06:37:06;;;;;;;14.00;7.20;;;;;;;;;;5063650;28;20039;-69
2022/10/29 06:39:31;;;;;;;14.03;7.80;;;;;;;;;;5070390;28;20134;-69
2022/10/29 06:41:56;;;;;;;15.13;7.20;;;;;;;;;;5070941;28;20320;-69
2022/10/29 06:44:22;;;;;;;11.47;7.77;;;;;;;;;;5061024;28;20263;-69
2022/10/29 06:46:47;;;;;;;15.50;9.40;;;;;;;;;;5058820;28;20336;-69
2022/10/29 06:49:12;;;;;;;14.40;7.50;;;;;;;;;;5062532;28;20270;-69
2022/10/29 06:51:37;;;;;;;17.58;8.32;;;;;;;;;;5066404;28;20371;-69
2022/10/29 06:54:02;;;;;;;12.83;7.27;;;;;;;;;;5079385;28;20028;-69
2022/10/29 06:56:28;;;;;;;14.07;7.68;;;;;;;;;;5086594;28;20281;-69
2022/10/29 06:58:53;;;;;;;13.07;8.40;;;;;;;;;;5079842;28;20035;-69
2022/10/29 07:01:18;;;;;;;12.20;8.00;;;;;;;;;;5070863;28;20275;-69
2022/10/29 07:03:43;;;;;;;10.17;7.47;;;;;;;;;;5070883;28;20301;-69
2022/10/29 07:06:08;;;;;;;13.93;7.87;;;;;;;;;;5075872;28;20262;-69
2022/10/29 07:08:34;;;;;;;13.80;8.13;;;;;;;;;;5074348;28;20760;-69
2022/10/29 07:11:01;;;;;;;12.13;8.27;;;;;;;;;;5069785;28;20255;-69
2022/10/29 07:13:26;;;;;;;16.80;8.52;;;;;;;;;;5066535;28;20066;-69
2022/10/29 07:15:52;;;;;;;16.45;8.20;;;;;;;;;;5078973;28;20017;-69
2022/10/29 07:18:17;;;;;;;14.73;8.13;;;;;;;;;;5071753;28;20032;-69
2022/10/29 07:20:43;;;;;;;18.93;8.20;;;;;;;;;;5074700;28;20021;-69
2022/10/29 07:23:09;;;;;;;14.57;8.05;;;;;;;;;;5079300;28;20294;-69
2022/10/29 07:25:35;;;;;;;11.05;6.93;;;;;;;;;;5066092;28;20017;-69
2022/10/29 07:28:04;;;;;;;12.57;7.63;;;;;;;;;;5069334;28;20008;-69
2022/10/29 07:30:29;;;;;;;14.90;7.05;;;;;;;;;;5069622;28;20024;-69
2022/10/29 07:32:54;;;;;;;10.75;5.65;;;;;;;;;;5070934;28;20145;-69
2022/10/29 07:35:20;;;;;;;12.73;7.88;;;;;;;;;;5064985;28;20021;-69
2022/10/29 07:37:45;;;;;;;14.52;7.65;;;;;;;;;;5062584;28;20035;-69
2022/10/29 07:40:10;;;;;;;18.13;5.97;;;;;;;;;;5072639;28;20359;-69
2022/10/29 07:42:36;;;;;;;9.90;5.45;;;;;;;;;;5078827;28;20688;-69
2022/10/29 07:45:01;;;;;;;10.30;4.80;;;;;;;;;;5069530;28;20035;-69
2022/10/29 07:47:26;;;;;;;12.03;6.27;;;;;;;;;;5059703;28;20274;-69
2022/10/29 07:49:51;;;;;;;8.80;5.23;;;;;;;;;;5072441;28;20266;-69
2022/10/29 07:52:17;;;;;;;12.70;5.47;;;;;;;;;;5074650;28;20481;-69
2022/10/29 07:54:42;;;;;;;6.30;4.78;;;;;;;;;;5047586;28;20277;-70
2022/10/29 07:57:07;;;;;;;10.20;5.90;;;;;;;;;;5033597;28;20056;-69
2022/10/29 07:59:32;;;;;;;14.50;5.07;;;;;;;;;;5055730;28;20020;-69
2022/10/29 08:01:58;;;;;;;10.10;5.83;;;;;;;;;;5072399;28;20031;-69
2022/10/29 08:04:23;;;;;;;10.27;5.57;;;;;;;;;;5061663;28;20313;-69
2022/10/29 08:06:48;;;;;;;11.25;5.55;;;;;;;;;;5073908;28;20104;-69
2022/10/29 08:09:13;;;;;;;12.43;5.97;;;;;;;;;;5070379;28;20020;-69
2022/10/29 08:11:39;;;;;;;8.38;5.03;;;;;;;;;;5073488;28;20286;-69
2022/10/29 08:14:04;;;;;;;12.55;4.80;;;;;;;;;;5087503;28;20020;-69
2022/10/29 08:16:29;;;;;;;8.45;4.82;;;;;;;;;;5081664;28;20024;-70
2022/10/29 08:18:55;;;;;;;12.67;5.33;;;;;;;;;;5082535;28;20099;-68
2022/10/29 08:21:20;;;;;;;13.10;6.03;;;;;;;;;;5064779;28;20266;-68
2022/10/29 08:23:45;;;;;;;9.87;5.03;;;;;;;;;;5080510;28;20073;-69
2022/10/29 08:26:11;;;;;;;11.05;5.65;;;;;;;;;;5077242;28;20342;-68
2022/10/29 08:28:36;;;;;;;10.63;5.65;;;;;;;;;;5095515;28;20016;-68
2022/10/29 08:31:01;;;;;;;11.23;5.47;;;;;;;;;;5075682;28;20036;-68
2022/10/29 08:33:26;;;;;;;10.85;5.38;;;;;;;;;;5080828;28;20028;-68
2022/10/29 08:35:53;;;;;;;11.37;5.43;;;;;;;;;;5068675;28;20039;-68
2022/10/29 08:38:19;;;;;;;15.15;5.28;;;;;;;;;;5069302;28;20293;-68
2022/10/29 08:41:02;;;;;;;8.98;4.75;;;;;;;;;;5081482;28;20020;-68
2022/10/29 08:43:28;;;;;;;9.87;4.90;;;;;;;;;;5077816;28;20024;-68
2022/10/29 08:45:54;;;;;;;11.30;6.30;;;;;;;;;;5063459;28;20020;-68
2022/10/29 08:48:28;;;;;;;22.20;5.75;;;;;;;;;;5063188;28;20728;-69
2022/10/29 08:51:16;;;;;;;11.25;5.25;;;;;;;;;;5063180;28;20471;-68
2022/10/29 08:53:43;;;;;;;14.82;4.80;;;;;;;;;;5056296;28;20119;-68
2022/10/29 08:56:12;;;;;;;12.85;5.53;;;;;;;;;;5065547;28;20044;-68
2022/10/29 08:58:58;;;;;;;12.35;5.40;;;;;;;;;;5058576;28;20039;-68
2022/10/29 09:01:23;;;;;;;10.88;5.55;;;;;;;;;;5054137;28;20028;-68
2022/10/29 09:03:49;;;;;;;8.93;4.97;;;;;;;;;;5065331;28;20025;-68
2022/10/29 09:06:22;;;;;;;17.50;5.18;;;;;;;;;;5049422;28;20185;-69
2022/10/29 09:08:53;;;;;;;11.98;6.00;;;;;;;;;;5064318;28;20040;-68
2022/10/29 09:11:37;;;;;;;10.20;5.43;;;;;;;;;;5076805;28;20078;-68
2022/10/29 09:14:18;;;;;;;9.40;4.80;;;;;;;;;;5081752;28;20087;-68
2022/10/29 09:16:52;;;;;;;8.73;5.13;;;;;;;;;;5082329;28;20036;-69
2022/10/29 09:19:17;;;;;;;21.58;5.75;;;;;;;;;;5072046;28;20023;-68
2022/10/29 09:21:42;;;;;;;16.60;6.33;;;;;;;;;;5076827;28;20028;-68
2022/10/29 09:24:08;;;;;;;8.10;5.40;;;;;;;;;;5066903;28;20447;-68
2022/10/29 09:26:35;;;;;;;12.03;6.07;;;;;;;;;;5072342;28;20546;-68
2022/10/29 09:29:05;;;;;;;14.35;6.20;;;;;;;;;;5081880;28;20051;-69
2022/10/29 09:31:38;;;;;;;14.00;6.50;;;;;;;;;;5079624;28;20037;-69
2022/10/29 09:34:08;;;;;;;14.40;6.47;;;;;;;;;;5066602;28;20037;-68
2022/10/29 09:36:34;;;;;;;11.80;6.32;;;;;;;;;;5047819;28;20241;-68
2022/10/29 09:39:08;;;;;;;11.10;6.00;;;;;;;;;;5072889;28;20024;-69
2022/10/29 09:41:33;;;;;;;11.57;6.18;;;;;;;;;;5066294;28;20029;-68
2022/10/29 09:44:02;;;;;;;8.85;5.40;;;;;;;;;;5051255;28;20548;-68
2022/10/29 09:46:37;;;;;;;15.52;6.07;;;;;;;;;;5056061;28;20514;-68
2022/10/29 09:49:10;;;;;;;10.95;5.90;;;;;;;;;;5062180;28;20610;-68
2022/10/29 09:51:40;;;;;;;12.15;6.28;;;;;;;;;;5056838;28;20020;-68
2022/10/29 09:54:05;;;;;;;16.92;6.28;;;;;;;;;;5070347;28;20025;-68
2022/10/29 09:56:30;;;;;;;14.35;6.38;;;;;;;;;;5070459;28;20473;-68
2022/10/29 09:59:02;;;;;;;11.52;5.50;;;;;;;;;;5070224;28;20012;-68
2022/10/29 10:01:27;;;;;;;19.48;5.38;;;;;;;;;;5065916;28;20057;-69
2022/10/29 10:03:54;;;;;;;12.47;5.43;;;;;;;;;;5065036;28;20120;-68
2022/10/29 10:06:19;;;;;;;15.80;5.65;;;;;;;;;;5051645;28;20255;-68
2022/10/29 10:08:56;;;;;;;10.52;5.35;;;;;;;;;;5049740;28;20822;-68
2022/10/29 10:11:22;;;;;;;21.80;5.68;;;;;;;;;;5055435;28;20036;-68
2022/10/29 10:13:51;;;;;;;16.85;6.07;;;;;;;;;;5054941;28;20017;-68
2022/10/29 10:16:22;;;;;;;9.88;5.63;;;;;;;;;;5052647;28;20024;-68
2022/10/29 10:18:47;;;;;;;12.65;5.03;;;;;;;;;;5052742;28;20016;-68
2022/10/29 10:21:22;;;;;;;12.77;5.43;;;;;;;;;;5053043;28;20413;-68
2022/10/29 10:23:52;;;;;;;11.75;5.45;;;;;;;;;;5051177;28;20122;-68
2022/10/29 10:26:26;;;;;;;14.32;5.90;;;;;;;;;;5054829;28;20467;-68
2022/10/29 10:28:51;;;;;;;;;;;;;;;;;;5052335;28;20478;-68
2022/10/29 10:31:16;;;;;;;16.42;4.88;;;;;;;;;;5077515;28;20460;-68
2022/10/29 10:33:49;;;;;;;14.10;5.80;;;;;;;;;;5057522;28;20055;-68
2022/10/29 10:36:15;;;;;;;16.60;5.65;;;;;;;;;;5073244;28;20294;-68
2022/10/29 10:38:45;;;;;;;19.40;6.38;;;;;;;;;;5069766;28;20027;-68
2022/10/29 10:41:13;;;;;;;16.33;7.07;;;;;;;;;;5064881;28;20025;-68
2022/10/29 10:43:41;;;;;;;18.05;6.15;;;;;;;;;;5073178;28;20407;-68
2022/10/29 10:46:17;;;;;;;12.90;5.60;;;;;;;;;;5072266;28;20009;-68
2022/10/29 10:48:42;;;;;;;18.08;5.53;;;;;;;;;;5061929;28;20017;-68
2022/10/29 10:51:11;;;;;;;18.13;5.95;;;;;;;;;;5068914;28;20099;-68
2022/10/29 10:53:38;;;;;;;12.77;5.75;;;;;;;;;;5074649;28;20020;-68
2022/10/29 10:56:06;;;;;;;22.73;6.28;;;;;;;;;;5087657;28;20131;-68
2022/10/29 10:58:40;;;;;;;14.73;5.65;;;;;;;;;;5074021;28;20077;-68
2022/10/29 11:01:10;;;;;;;10.40;4.85;;;;;;;;;;5071550;28;20032;-68
2022/10/29 11:03:35;;;;;;;13.13;5.35;;;;;;;;;;5071579;28;20020;-68
2022/10/29 11:06:03;;;;;;;12.77;5.23;;;;;;;;;;5068079;28;20016;-68
2022/10/29 11:08:33;;;;;;;11.38;5.15;;;;;;;;;;5070962;28;20104;-68
2022/10/29 11:11:18;;;;;;;11.02;4.85;;;;;;;;;;5070704;28;20044;-68
2022/10/29 11:13:43;;;;;;;;;;;;;;;;;;5054698;28;20519;-68
2022/10/29 11:16:16;;;;;;;17.50;6.23;;;;;;;;;;5064731;28;20055;-68
2022/10/29 11:18:52;;;;;;;12.53;5.10;;;;;;;;;;5064994;28;20032;-68
2022/10/29 11:21:23;;;;;;;10.40;4.72;;;;;;;;;;5068166;28;20071;-68
2022/10/29 11:23:55;;;;;;;15.30;5.10;;;;;;;;;;5068711;28;20028;-68
2022/10/29 11:26:40;;;;;;;12.02;5.03;;;;;;;;;;5066666;28;20036;-68
2022/10/29 11:29:23;;;;;;;12.90;5.05;;;;;;;;;;5073395;28;20445;-68
2022/10/29 11:31:55;;;;;;;15.60;4.75;;;;;;;;;;5075658;28;20074;-68
2022/10/29 11:34:38;;;;;;;14.23;5.07;;;;;;;;;;5081572;28;20051;-68
2022/10/29 11:37:13;;;;;;;10.48;4.72;;;;;;;;;;5049632;28;20063;-68
2022/10/29 11:39:58;;;;;;;15.95;4.68;;;;;;;;;;5065422;28;20032;-68
2022/10/29 11:42:24;;;;;;;10.93;4.68;;;;;;;;;;5065821;28;20024;-68
2022/10/29 11:44:50;;;;;;;19.50;5.82;;;;;;;;;;5076729;28;20012;-68
2022/10/29 11:47:26;;;;;;;15.50;5.55;;;;;;;;;;5061815;28;20617;-68
2022/10/29 11:49:54;;;;;;;11.88;4.63;;;;;;;;;;5073530;28;20021;-68
2022/10/29 11:52:38;;;;;;;11.15;4.45;;;;;;;;;;5073111;28;20098;-68
2022/10/29 11:55:23;;;;;;;10.35;4.93;;;;;;;;;;5071555;28;20027;-68
2022/10/29 11:57:52;;;;;;;13.02;5.05;;;;;;;;;;5055218;28;20120;-68
2022/10/29 12:00:18;;;;;;;18.77;5.53;;;;;;;;;;5058505;28;20044;-69
2022/10/29 12:02:50;;;;;;;11.90;5.00;;;;;;;;;;5061925;28;20013;-68
2022/10/29 12:05:21;;;;;;;12.90;5.57;;;;;;;;;;5067704;28;20047;-68
2022/10/29 12:07:52;;;;;;;11.52;5.32;;;;;;;;;;5065027;28;20048;-68
2022/10/29 12:10:18;;;;;;;15.40;5.10;;;;;;;;;;5073479;28;20082;-68
2022/10/29 12:12:49;;;;;;;12.37;4.73;;;;;;;;;;5071161;28;20402;-69
2022/10/29 12:15:22;;;;;;;14.45;5.50;;;;;;;;;;5071140;28;20039;-69
2022/10/29 12:17:54;;;;;;;14.00;5.55;;;;;;;;;;5067365;28;20033;-68
2022/10/29 12:20:29;;;;;;;12.43;4.72;;;;;;;;;;5061922;28;20020;-68
2022/10/29 12:22:57;;;;;;;14.95;4.80;;;;;;;;;;5059345;28;20039;-68
2022/10/29 12:25:22;;;;;;;12.27;4.95;;;;;;;;;;5072237;28;20451;-68
2022/10/29 12:28:00;;;;;;;9.87;5.10;;;;;;;;;;5074165;28;20039;-68
2022/10/29 12:30:26;;;;;;;14.13;5.68;;;;;;;;;;5064892;28;20027;-69
2022/10/29 12:33:05;;;;;;;9.43;4.47;;;;;;;;;;5074154;28;20016;-69
2022/10/29 12:35:30;;;;;;;11.52;5.63;;;;;;;;;;5070853;28;20024;-69
2022/10/29 12:37:55;;;;;;;17.55;5.28;;;;;;;;;;5075904;28;20032;-68
2022/10/29 12:40:23;;;;;;;15.80;5.10;;;;;;;;;;5061461;28;20453;-68
2022/10/29 12:42:48;;;;;;;15.55;5.47;;;;;;;;;;5073537;28;20024;-68
2022/10/29 12:45:22;;;;;;;12.13;5.13;;;;;;;;;;5063271;28;20425;-68
2022/10/29 12:47:53;;;;;;;17.65;5.72;;;;;;;;;;5054515;28;20045;-69
2022/10/29 12:50:25;;;;;;;14.07;5.28;;;;;;;;;;5067650;28;20032;-69
2022/10/29 12:53:08;;;;;;;11.13;5.10;;;;;;;;;;5080907;28;20119;-68
2022/10/29 12:55:35;;;;;;;15.85;5.22;;;;;;;;;;5059360;28;20056;-69
2022/10/29 12:58:21;;;;;;;13.73;5.30;;;;;;;;;;5069048;28;20058;-68
2022/10/29 13:00:46;;;;;;;16.40;5.43;;;;;;;;;;5069531;28;20091;-68
2022/10/29 13:03:14;;;;;;;14.88;6.03;;;;;;;;;;5072879;28;20104;-68
2022/10/29 13:05:43;;;;;;;11.77;5.10;;;;;;;;;;5063058;28;20467;-68
2022/10/29 13:08:10;;;;;;;12.30;5.75;;;;;;;;;;5060747;28;20027;-68
2022/10/29 13:10:46;;;;;;;19.23;6.10;;;;;;;;;;5064481;28;20078;-68
2022/10/29 13:13:14;;;;;;;19.55;5.25;;;;;;;;;;5058606;28;20021;-68
2022/10/29 13:15:42;;;;;;;12.57;6.35;;;;;;;;;;5066629;28;20043;-68
2022/10/29 13:18:08;;;;;;;15.70;5.38;;;;;;;;;;5056140;28;20036;-68
2022/10/29 13:20:38;;;;;;;15.93;6.03;;;;;;;;;;5051822;28;20017;-68
2022/10/29 13:23:23;;;;;;;20.40;6.07;;;;;;;;;;5051722;28;20267;-68
2022/10/29 13:25:52;;;;;;;17.80;5.22;;;;;;;;;;5059452;28;20420;-68
2022/10/29 13:28:17;;;;;;;10.77;5.40;;;;;;;;;;5056016;28;20024;-68
2022/10/29 13:30:43;;;;;;;13.93;4.87;;;;;;;;;;5054991;28;20391;-68
2022/10/29 13:33:29;;;;;;;15.50;5.15;;;;;;;;;;5065666;28;20020;-68
2022/10/29 13:35:58;;;;;;;10.30;5.40;;;;;;;;;;5051635;28;20048;-68
2022/10/29 13:38:38;;;;;;;10.02;5.45;;;;;;;;;;5061782;28;20182;-68
2022/10/29 13:41:37;;;;;;;12.88;5.13;;;;;;;;;;5069791;28;20455;-68
2022/10/29 13:44:08;;;;;;;20.90;5.70;;;;;;;;;;5053409;28;20029;-68
2022/10/29 13:46:48;;;;;;;14.15;5.65;;;;;;;;;;5067841;28;20492;-68
2022/10/29 13:49:21;;;;;;;9.95;4.97;;;;;;;;;;5062708;28;20036;-68
2022/10/29 13:51:51;;;;;;;15.32;5.97;;;;;;;;;;5053904;28;20020;-68
2022/10/29 13:54:23;;;;;;;24.60;6.72;;;;;;;;;;5052661;28;20043;-68
2022/10/29 13:56:52;;;;;;;12.45;6.10;;;;;;;;;;5049865;28;20036;-68
2022/10/29 13:59:23;;;;;;;11.68;6.18;;;;;;;;;;5078064;28;20031;-68
2022/10/29 14:01:56;;;;;;;13.60;5.25;;;;;;;;;;5077739;28;20059;-68
2022/10/29 14:04:24;;;;;;;30.92;6.22;;;;;;;;;;5053486;28;20009;-69
2022/10/29 14:06:50;;;;;;;24.13;7.00;;;;;;;;;;5060619;28;20071;-68
2022/10/29 14:09:21;;;;;;;14.35;5.40;;;;;;;;;;5066423;28;20745;-68
2022/10/29 14:11:52;;;;;;;13.00;5.22;;;;;;;;;;5069480;28;20040;-68
2022/10/29 14:14:23;;;;;;;19.27;6.10;;;;;;;;;;5056524;28;20025;-68
2022/10/29 14:16:48;;;;;;;15.52;4.82;;;;;;;;;;5069908;28;20035;-68
2022/10/29 14:19:18;;;;;;;14.47;5.87;;;;;;;;;;5069575;28;20012;-68
2022/10/29 14:21:43;;;;;;;17.33;5.85;;;;;;;;;;5081392;28;20271;-68
2022/10/29 14:24:09;;;;;;;12.53;5.93;;;;;;;;;;5067785;28;20013;-68
2022/10/29 14:26:36;;;;;;;20.52;6.45;;;;;;;;;;5070925;28;20765;-68
2022/10/29 14:29:13;;;;;;;11.75;5.82;;;;;;;;;;5069653;28;20029;-68
2022/10/29 14:31:38;;;;;;;18.95;6.75;;;;;;;;;;5076559;28;20039;-68
2022/10/29 14:34:03;;;;;;;14.77;5.20;;;;;;;;;;5091139;28;20036;-68
2022/10/29 14:36:40;;;;;;;14.38;5.72;;;;;;;;;;5076025;28;20289;-68